Waterloo, Belgium
Current Conditions -  °F | °C
As of 2:50 PM on Saturday 22 Nov 2014 (Local Time) from EBBR Reporting Station
Clear Clear  
Wind Chill: 59°   Ceiling: Unl
Heat Index: 59°   Visibility: 6mi
Dew Point: 50°   Wind: 5mph
Humidity: 72%   Direction: 170°S
Pressure: 30"   Gusts: NA
Location:  50.71°N, 4.4°E
Report Text: EBBR 221350Z 17004KT CAVOK 15/10 Q1016 NOSIG
Loading
Personal Weather Stations






























Interactive Weather Map New forecast layout! Learn more

10-Day Weather Forecast

Advertisements
Track Severe Weather on mobile